createdAt,value
2018-08-22T00:01:46.843Z,16.30
2018-08-22T00:04:15.162Z,16.40
2018-08-22T00:06:43.465Z,16.40
2018-08-22T00:09:11.789Z,16.50
2018-08-22T00:11:40.113Z,16.50
2018-08-22T00:14:08.494Z,16.40
2018-08-22T00:16:36.833Z,16.30
2018-08-22T00:19:05.213Z,16.30
2018-08-22T00:21:33.592Z,16.20
2018-08-22T00:24:02.173Z,16.20
2018-08-22T00:26:30.510Z,16.20
2018-08-22T00:28:58.920Z,16.20
2018-08-22T00:31:27.186Z,16.20
2018-08-22T00:33:55.562Z,16.30
2018-08-22T00:36:23.870Z,16.30
2018-08-22T00:38:52.205Z,16.30
2018-08-22T00:41:20.508Z,16.20
2018-08-22T00:43:48.833Z,16.10
2018-08-22T00:46:17.141Z,15.90
2018-08-22T00:48:45.493Z,15.80
2018-08-22T00:51:13.798Z,15.70
2018-08-22T00:53:42.144Z,15.60
2018-08-22T00:56:10.477Z,15.70
2018-08-22T00:58:38.834Z,15.70
2018-08-22T01:01:07.145Z,15.70
2018-08-22T01:03:35.505Z,15.70
2018-08-22T01:06:03.826Z,15.70
2018-08-22T01:08:32.217Z,15.70
2018-08-22T01:11:00.557Z,15.70
2018-08-22T01:13:28.905Z,15.80
2018-08-22T01:15:57.227Z,15.90
2018-08-22T01:18:25.564Z,15.80
2018-08-22T01:20:53.886Z,15.80
2018-08-22T01:23:22.258Z,15.90
2018-08-22T01:25:50.606Z,15.90
2018-08-22T01:28:18.957Z,15.80
2018-08-22T01:30:47.268Z,15.70
2018-08-22T01:33:15.608Z,15.60
2018-08-22T01:35:43.942Z,15.60
2018-08-22T01:38:12.240Z,15.60
2018-08-22T01:40:40.593Z,15.70
2018-08-22T01:43:08.910Z,15.60
2018-08-22T01:45:37.293Z,15.70
2018-08-22T01:48:05.659Z,15.80
2018-08-22T01:50:33.989Z,15.60
2018-08-22T01:53:02.330Z,15.50
2018-08-22T01:55:30.664Z,15.40
2018-08-22T01:57:58.977Z,15.30
2018-08-22T02:00:27.357Z,15.20
2018-08-22T02:02:55.662Z,15.20
2018-08-22T02:05:24.017Z,15.30
2018-08-22T02:07:52.337Z,15.40
2018-08-22T02:10:20.728Z,15.50
2018-08-22T02:12:49.017Z,15.60
2018-08-22T02:15:17.356Z,15.60
2018-08-22T02:17:45.661Z,15.40
2018-08-22T02:20:14.002Z,15.30
2018-08-22T02:22:42.322Z,15.20
2018-08-22T02:25:10.699Z,15.20
2018-08-22T02:27:39.018Z,15.20
2018-08-22T02:30:07.358Z,15.20
2018-08-22T02:32:35.682Z,15.20
2018-08-22T02:35:04.045Z,15.20
2018-08-22T02:37:32.354Z,15.20
2018-08-22T02:40:00.717Z,15.20
2018-08-22T02:42:29.040Z,15.10
2018-08-22T02:44:57.409Z,15.00
2018-08-22T02:47:25.738Z,15.00
2018-08-22T02:49:54.086Z,15.00
2018-08-22T02:52:22.479Z,14.90
2018-08-22T02:54:50.810Z,14.80
2018-08-22T02:57:19.151Z,14.80
2018-08-22T02:59:47.500Z,14.70
2018-08-22T03:02:15.817Z,14.70
2018-08-22T03:04:44.162Z,14.60
2018-08-22T03:07:12.491Z,14.60
2018-08-22T03:09:40.858Z,14.70
2018-08-22T03:12:09.225Z,14.60
2018-08-22T03:14:37.590Z,14.60
2018-08-22T03:17:05.961Z,14.50
2018-08-22T03:19:34.323Z,14.50
2018-08-22T03:22:02.641Z,14.40
2018-08-22T03:24:30.990Z,14.40
2018-08-22T03:26:59.334Z,14.40
2018-08-22T03:29:27.698Z,14.30
2018-08-22T03:31:56.031Z,14.30
2018-08-22T03:34:24.365Z,14.40
2018-08-22T03:36:52.710Z,14.30
2018-08-22T03:39:21.061Z,14.30
2018-08-22T03:41:49.402Z,14.30
2018-08-22T03:44:17.726Z,14.30
2018-08-22T03:46:46.058Z,14.30
2018-08-22T03:49:14.386Z,14.20
2018-08-22T03:51:42.729Z,14.20
2018-08-22T03:54:11.159Z,14.20
2018-08-22T03:56:39.545Z,14.30
2018-08-22T03:59:07.857Z,14.20
2018-08-22T04:01:36.206Z,14.20
2018-08-22T04:04:04.526Z,14.20
2018-08-22T04:06:32.955Z,14.30
2018-08-22T04:09:01.270Z,14.10
2018-08-22T04:11:29.607Z,14.10
2018-08-22T04:13:57.933Z,14.10
2018-08-22T04:16:26.277Z,14.10
2018-08-22T04:18:54.598Z,14.10
2018-08-22T04:21:22.950Z,14.10
2018-08-22T04:23:51.293Z,14.10
2018-08-22T04:26:19.659Z,14.20
2018-08-22T04:28:47.978Z,14.20
2018-08-22T04:31:16.325Z,14.20
2018-08-22T04:33:44.665Z,14.10
2018-08-22T04:36:13.035Z,14.10
2018-08-22T04:38:41.375Z,14.10
2018-08-22T04:41:09.729Z,14.00
2018-08-22T04:43:38.134Z,14.00
2018-08-22T04:46:06.485Z,14.00
2018-08-22T04:48:34.831Z,14.00
2018-08-22T04:51:03.187Z,14.10
2018-08-22T04:53:31.513Z,14.10
2018-08-22T04:55:59.857Z,14.10
2018-08-22T04:58:28.189Z,14.10
2018-08-22T05:00:56.541Z,14.20
2018-08-22T05:03:24.877Z,14.30
2018-08-22T05:05:53.267Z,14.30
2018-08-22T05:08:21.589Z,14.40
2018-08-22T05:10:49.924Z,14.40
2018-08-22T05:13:18.258Z,14.50
2018-08-22T05:15:46.603Z,14.50
2018-08-22T05:18:14.973Z,14.60
2018-08-22T05:20:43.308Z,14.70
2018-08-22T05:23:11.659Z,14.80
2018-08-22T05:25:40.003Z,14.90
2018-08-22T05:28:08.342Z,14.90
2018-08-22T05:30:36.684Z,15.00
2018-08-22T05:33:05.066Z,15.10
2018-08-22T05:35:33.383Z,15.40
2018-08-22T05:38:01.718Z,16.30
2018-08-22T05:40:30.054Z,16.60
2018-08-22T05:42:58.482Z,16.90
2018-08-22T05:45:26.814Z,16.90
2018-08-22T05:47:55.150Z,16.80
2018-08-22T05:50:23.477Z,16.60
2018-08-22T05:52:51.847Z,16.40
2018-08-22T05:55:20.928Z,16.40
2018-08-22T05:57:49.270Z,16.60
2018-08-22T06:00:17.595Z,16.60
2018-08-22T06:02:45.982Z,16.80
2018-08-22T06:05:14.316Z,17.20
2018-08-22T06:07:42.665Z,17.30
2018-08-22T06:10:10.987Z,17.30
2018-08-22T06:12:39.348Z,17.30
2018-08-22T06:15:07.701Z,17.40
2018-08-22T06:17:36.048Z,17.60
2018-08-22T06:20:04.766Z,18.10
2018-08-22T06:22:33.128Z,18.40
2018-08-22T06:25:01.442Z,18.50
2018-08-22T06:27:29.806Z,18.60
2018-08-22T06:29:58.218Z,18.70
2018-08-22T06:32:26.698Z,18.50
2018-08-22T06:34:55.054Z,18.40
2018-08-22T06:37:23.408Z,18.50
2018-08-22T06:39:51.735Z,18.80
2018-08-22T06:42:20.115Z,18.80
2018-08-22T06:44:49.526Z,19.00
2018-08-22T06:47:17.871Z,19.00
2018-08-22T06:49:46.185Z,19.00
2018-08-22T06:52:14.634Z,19.20
2018-08-22T06:54:42.953Z,19.20
2018-08-22T06:57:11.381Z,19.30
2018-08-22T06:59:39.653Z,19.30
2018-08-22T07:02:08.017Z,19.50
2018-08-22T07:04:36.385Z,19.70
2018-08-22T07:07:04.985Z,19.80
2018-08-22T07:09:33.370Z,19.90
2018-08-22T07:12:01.690Z,20.00
2018-08-22T07:14:30.035Z,20.30
2018-08-22T07:16:58.386Z,20.40
2018-08-22T07:19:26.734Z,20.60
2018-08-22T07:21:55.078Z,20.90
2018-08-22T07:24:23.438Z,21.20
2018-08-22T07:26:51.793Z,21.50
2018-08-22T07:29:20.146Z,21.90
2018-08-22T07:31:48.486Z,22.00
2018-08-22T07:34:16.826Z,22.00
2018-08-22T07:36:45.149Z,22.10
2018-08-22T07:39:13.962Z,22.10
2018-08-22T07:41:42.298Z,22.10
2018-08-22T07:44:11.218Z,22.10
2018-08-22T07:46:39.534Z,22.30
2018-08-22T07:49:08.300Z,22.40
2018-08-22T07:51:36.687Z,22.50
2018-08-22T07:54:05.076Z,22.60
2018-08-22T07:56:33.385Z,22.60
2018-08-22T07:59:10.262Z,22.70
2018-08-22T08:01:39.223Z,22.90
2018-08-22T08:04:08.839Z,23.10
2018-08-22T08:06:37.203Z,23.20
2018-08-22T08:09:08.624Z,23.40
2018-08-22T08:11:36.954Z,23.70
2018-08-22T08:14:05.323Z,24.30
2018-08-22T08:16:33.697Z,24.80
2018-08-22T08:19:02.056Z,24.80
2018-08-22T08:21:30.395Z,24.50
2018-08-22T08:23:59.196Z,24.50
2018-08-22T08:26:27.617Z,24.50
2018-08-22T08:28:55.988Z,24.60
2018-08-22T08:31:24.310Z,25.00
2018-08-22T08:33:52.651Z,25.20
2018-08-22T08:36:20.990Z,25.20
2018-08-22T08:38:49.349Z,25.10
2018-08-22T08:41:17.678Z,25.10
2018-08-22T08:43:46.040Z,25.10
2018-08-22T08:46:14.420Z,25.20
2018-08-22T08:48:42.811Z,25.10
2018-08-22T08:51:11.122Z,25.00
2018-08-22T08:53:39.465Z,25.10
2018-08-22T08:56:07.818Z,25.30
2018-08-22T08:58:36.162Z,25.50
2018-08-22T09:01:04.508Z,25.60
2018-08-22T09:03:32.835Z,25.80
2018-08-22T09:06:01.198Z,26.10
2018-08-22T09:08:29.513Z,26.00
2018-08-22T09:10:57.906Z,26.00
2018-08-22T09:13:26.249Z,26.10
2018-08-22T09:15:54.594Z,26.10
2018-08-22T09:18:22.922Z,26.20
2018-08-22T09:20:51.294Z,26.50
2018-08-22T09:23:20.575Z,26.60
2018-08-22T09:25:48.928Z,26.70
2018-08-22T09:28:17.264Z,26.80
2018-08-22T09:30:45.626Z,26.80
2018-08-22T09:33:14.035Z,26.80
2018-08-22T09:35:42.379Z,26.80
2018-08-22T09:38:10.727Z,27.10
2018-08-22T09:40:39.126Z,27.10
2018-08-22T09:43:07.448Z,27.40
2018-08-22T09:45:35.793Z,27.40
2018-08-22T09:48:04.408Z,27.50
2018-08-22T09:50:32.782Z,27.50
2018-08-22T09:53:01.110Z,27.50
2018-08-22T09:55:29.457Z,27.70
2018-08-22T09:57:57.818Z,27.70
2018-08-22T10:00:31.603Z,27.70
2018-08-22T10:02:59.926Z,27.70
2018-08-22T10:05:28.324Z,27.80
2018-08-22T10:07:56.645Z,28.10
2018-08-22T10:10:25.015Z,28.20
2018-08-22T10:12:53.332Z,28.20
2018-08-22T10:15:21.674Z,28.00
2018-08-22T10:17:49.994Z,28.10
2018-08-22T10:20:18.397Z,28.40
2018-08-22T10:22:46.715Z,28.40
2018-08-22T10:25:15.062Z,28.50
2018-08-22T10:27:43.378Z,28.60
2018-08-22T10:30:11.872Z,28.70
2018-08-22T10:32:40.230Z,28.80
2018-08-22T10:35:08.627Z,29.00
2018-08-22T10:37:36.991Z,28.90
2018-08-22T10:40:05.381Z,28.90
2018-08-22T10:42:33.723Z,29.00
2018-08-22T10:45:02.062Z,29.30
2018-08-22T10:47:30.384Z,29.40
2018-08-22T10:49:58.831Z,29.90
2018-08-22T10:52:27.166Z,30.20
2018-08-22T10:54:55.713Z,30.30
2018-08-22T10:57:24.769Z,30.60
2018-08-22T10:59:53.094Z,30.80
2018-08-22T11:02:22.623Z,30.80
2018-08-22T11:04:50.959Z,31.40
2018-08-22T11:07:19.292Z,31.40
2018-08-22T11:09:47.660Z,31.70
2018-08-22T11:12:16.004Z,32.30
2018-08-22T11:14:44.332Z,32.80
2018-08-22T11:17:12.726Z,33.30
2018-08-22T11:19:41.049Z,34.10
2018-08-22T11:22:20.813Z,34.40
2018-08-22T11:25:00.343Z,34.40
2018-08-22T11:27:39.870Z,34.70
2018-08-22T11:30:20.232Z,35.80
2018-08-22T11:32:59.881Z,36.40
2018-08-22T11:35:27.519Z,36.80
2018-08-22T11:37:55.916Z,36.90
2018-08-22T11:40:24.237Z,36.90
2018-08-22T11:42:52.591Z,37.20
2018-08-22T11:45:20.906Z,37.30
2018-08-22T11:47:49.264Z,36.30
2018-08-22T11:50:17.589Z,36.20
2018-08-22T11:52:45.957Z,36.30
2018-08-22T11:55:14.314Z,35.50
2018-08-22T11:57:42.661Z,35.70
2018-08-22T12:00:11.011Z,35.90
2018-08-22T12:02:39.354Z,36.40
2018-08-22T12:05:07.678Z,36.50
2018-08-22T12:07:36.015Z,37.20
2018-08-22T12:10:04.389Z,37.00
2018-08-22T12:12:32.738Z,36.90
2018-08-22T12:15:01.055Z,36.60
2018-08-22T12:17:29.401Z,36.90
2018-08-22T12:19:57.817Z,36.70
2018-08-22T12:22:26.231Z,36.50
2018-08-22T12:24:54.553Z,37.10
2018-08-22T12:27:23.098Z,37.40
2018-08-22T12:29:51.410Z,37.50
2018-08-22T12:32:19.770Z,37.90
2018-08-22T12:34:48.130Z,37.90
2018-08-22T12:37:16.693Z,37.70
2018-08-22T12:39:45.026Z,37.80
2018-08-22T12:42:13.444Z,37.80
2018-08-22T12:44:41.783Z,37.10
2018-08-22T12:47:10.125Z,37.70
2018-08-22T12:49:38.438Z,37.60
2018-08-22T12:52:06.781Z,37.90
2018-08-22T12:54:35.110Z,37.80
2018-08-22T12:57:03.456Z,37.60
2018-08-22T12:59:31.816Z,37.00
2018-08-22T13:02:00.149Z,37.40
2018-08-22T13:04:28.485Z,37.50
2018-08-22T13:06:56.878Z,36.80
2018-08-22T13:09:25.206Z,36.90
2018-08-22T13:11:53.526Z,37.00
2018-08-22T13:14:21.861Z,37.50
2018-08-22T13:16:50.201Z,37.40
2018-08-22T13:19:18.550Z,37.70
2018-08-22T13:21:46.901Z,37.50
2018-08-22T13:24:15.274Z,37.70
2018-08-22T13:26:43.634Z,37.40
2018-08-22T13:29:12.220Z,37.00
2018-08-22T13:31:40.521Z,37.00
2018-08-22T13:34:08.860Z,36.90
2018-08-22T13:36:37.181Z,36.50
2018-08-22T13:39:07.772Z,36.30
2018-08-22T13:41:36.026Z,36.30
2018-08-22T13:44:04.390Z,35.80
2018-08-22T13:46:32.749Z,35.50
2018-08-22T13:49:01.178Z,35.30
2018-08-22T13:51:29.499Z,35.30
2018-08-22T13:53:57.819Z,35.50
2018-08-22T13:56:26.252Z,35.80
2018-08-22T13:58:54.623Z,35.40
2018-08-22T14:01:23.029Z,34.90
2018-08-22T14:03:51.382Z,34.30
2018-08-22T14:06:19.685Z,33.80
2018-08-22T14:08:48.026Z,33.30
2018-08-22T14:11:16.367Z,32.90
2018-08-22T14:13:44.730Z,32.30
2018-08-22T14:16:13.065Z,31.60
2018-08-22T14:18:41.405Z,31.40
2018-08-22T14:21:09.758Z,31.60
2018-08-22T14:23:38.104Z,31.70
2018-08-22T14:26:06.670Z,31.70
2018-08-22T14:28:35.029Z,31.50
2018-08-22T14:31:03.369Z,31.40
2018-08-22T14:33:31.709Z,31.20
2018-08-22T14:36:00.039Z,31.40
2018-08-22T14:38:28.370Z,31.40
2018-08-22T14:40:56.713Z,31.50
2018-08-22T14:43:25.708Z,31.40
2018-08-22T14:45:54.036Z,31.40
2018-08-22T14:48:22.418Z,31.40
2018-08-22T14:50:50.734Z,31.30
2018-08-22T14:53:19.068Z,31.30
2018-08-22T14:55:47.540Z,31.20
2018-08-22T14:58:16.976Z,31.20
2018-08-22T15:00:45.306Z,31.10
2018-08-22T15:03:14.020Z,31.00
2018-08-22T15:05:41.981Z,30.90
2018-08-22T15:08:10.308Z,30.80
2018-08-22T15:10:38.666Z,30.70
2018-08-22T15:13:07.072Z,30.70
2018-08-22T15:15:35.350Z,30.30
2018-08-22T15:18:03.688Z,30.40
2018-08-22T15:20:32.034Z,30.50
2018-08-22T15:23:00.386Z,30.40
2018-08-22T15:25:28.706Z,30.30
2018-08-22T15:27:57.058Z,30.40
2018-08-22T15:30:25.377Z,30.60
2018-08-22T15:32:53.750Z,30.70
2018-08-22T15:35:22.977Z,30.80
2018-08-22T15:37:51.418Z,30.70
2018-08-22T15:40:19.740Z,30.50
2018-08-22T15:42:48.089Z,30.40
2018-08-22T15:45:16.499Z,30.30
2018-08-22T15:47:44.963Z,30.30
2018-08-22T15:50:13.185Z,30.30
2018-08-22T15:52:41.522Z,30.20
2018-08-22T15:55:15.534Z,30.20
2018-08-22T15:58:03.089Z,30.30
2018-08-22T16:00:44.356Z,30.00
2018-08-22T16:03:12.774Z,30.00
2018-08-22T16:05:41.919Z,29.80
2018-08-22T16:08:10.730Z,29.60
2018-08-22T16:10:39.076Z,29.70
2018-08-22T16:13:18.851Z,29.80
2018-08-22T16:15:49.381Z,29.70
2018-08-22T16:18:17.798Z,29.60
2018-08-22T16:20:53.318Z,29.50
2018-08-22T16:23:23.528Z,29.50
2018-08-22T16:25:52.811Z,29.50
2018-08-22T16:28:21.659Z,29.40
2018-08-22T16:30:57.042Z,29.30
2018-08-22T16:33:21.105Z,29.20
2018-08-22T16:35:49.421Z,29.30
2018-08-22T16:38:17.793Z,29.10
2018-08-22T16:40:53.109Z,28.90
2018-08-22T16:43:38.178Z,28.80
2018-08-22T16:46:11.076Z,28.70
2018-08-22T16:48:40.279Z,28.60
2018-08-22T16:51:08.624Z,28.60
2018-08-22T16:53:37.084Z,28.60
2018-08-22T16:56:05.539Z,28.40
2018-08-22T16:58:33.925Z,28.40
2018-08-22T17:01:02.222Z,28.50
2018-08-22T17:03:30.559Z,28.50
2018-08-22T17:06:04.359Z,28.40
2018-08-22T17:08:32.738Z,28.30
2018-08-22T17:11:02.329Z,28.20
2018-08-22T17:13:41.368Z,28.10
2018-08-22T17:16:09.709Z,27.90
2018-08-22T17:18:38.075Z,27.80
2018-08-22T17:21:06.494Z,27.80
2018-08-22T17:23:34.825Z,27.80
2018-08-22T17:26:03.219Z,27.80
2018-08-22T17:28:38.373Z,27.80
2018-08-22T17:31:06.982Z,27.70
2018-08-22T17:33:40.757Z,27.80
2018-08-22T17:36:10.289Z,27.70
2018-08-22T17:38:39.090Z,27.60
2018-08-22T17:41:07.440Z,27.60
2018-08-22T17:43:54.678Z,27.50
2018-08-22T17:46:24.782Z,27.40
2018-08-22T17:48:53.427Z,27.30
2018-08-22T17:51:21.865Z,27.10
2018-08-22T17:53:50.220Z,27.00
2018-08-22T17:56:20.464Z,26.90
2018-08-22T17:58:49.335Z,26.70
2018-08-22T18:01:17.710Z,26.70
2018-08-22T18:03:46.030Z,26.60
2018-08-22T18:06:14.372Z,26.40
2018-08-22T18:08:42.754Z,26.20
2018-08-22T18:11:11.086Z,26.10
2018-08-22T18:13:39.426Z,26.00
2018-08-22T18:16:07.747Z,25.80
2018-08-22T18:18:36.114Z,25.70
2018-08-22T18:21:04.478Z,25.60
2018-08-22T18:23:32.925Z,25.50
2018-08-22T18:26:02.633Z,25.40
2018-08-22T18:28:31.014Z,25.20
2018-08-22T18:30:59.328Z,25.10
2018-08-22T18:33:27.695Z,25.00
2018-08-22T18:35:56.049Z,24.80
2018-08-22T18:38:24.390Z,24.70
2018-08-22T18:41:04.055Z,24.60
2018-08-22T18:43:32.400Z,24.50
2018-08-22T18:46:07.800Z,24.40
2018-08-22T18:48:36.472Z,24.30
2018-08-22T18:51:05.140Z,24.20
2018-08-22T18:53:33.558Z,24.10
2018-08-22T18:56:12.895Z,24.00
2018-08-22T18:58:41.343Z,23.90
2018-08-22T19:01:09.687Z,23.80
2018-08-22T19:03:38.046Z,23.70
2018-08-22T19:06:06.773Z,23.60
2018-08-22T19:08:35.783Z,23.60
2018-08-22T19:11:04.151Z,23.40
2018-08-22T19:13:32.478Z,23.40
2018-08-22T19:16:03.271Z,23.30
2018-08-22T19:18:31.656Z,23.30
2018-08-22T19:21:01.949Z,23.20
2018-08-22T19:23:30.561Z,23.00
2018-08-22T19:25:59.844Z,22.90
2018-08-22T19:28:28.206Z,22.70
2018-08-22T19:30:56.550Z,22.70
2018-08-22T19:33:26.033Z,22.60
2018-08-22T19:35:54.572Z,22.60
2018-08-22T19:38:25.160Z,22.50
2018-08-22T19:40:53.689Z,22.40
2018-08-22T19:43:22.035Z,22.20
2018-08-22T19:45:50.354Z,22.20
2018-08-22T19:48:18.702Z,22.10
2018-08-22T19:50:47.039Z,22.10
2018-08-22T19:53:15.383Z,22.10
2018-08-22T19:55:43.732Z,22.00
2018-08-22T19:58:14.460Z,21.90
2018-08-22T20:00:42.798Z,22.20
2018-08-22T20:03:12.063Z,22.40
2018-08-22T20:05:50.800Z,22.50
2018-08-22T20:08:22.482Z,22.60
2018-08-22T20:10:50.839Z,22.70
2018-08-22T20:13:19.194Z,22.70
2018-08-22T20:15:47.567Z,22.70
2018-08-22T20:18:17.866Z,22.40
2018-08-22T20:20:46.360Z,22.20
2018-08-22T20:23:14.776Z,22.00
2018-08-22T20:25:43.134Z,21.80
2018-08-22T20:28:11.467Z,21.70
2018-08-22T20:30:39.807Z,21.50
2018-08-22T20:33:09.508Z,21.50
2018-08-22T20:35:39.233Z,21.40
2018-08-22T20:38:08.724Z,21.30
2018-08-22T20:40:37.106Z,21.10
2018-08-22T20:43:05.775Z,20.90
2018-08-22T20:45:35.410Z,20.80
2018-08-22T20:48:10.847Z,20.80
2018-08-22T20:50:40.566Z,20.90
2018-08-22T20:53:10.246Z,20.80
2018-08-22T20:55:38.644Z,20.90
2018-08-22T20:58:07.028Z,21.10
2018-08-22T21:00:36.685Z,21.40
2018-08-22T21:03:05.067Z,21.30
2018-08-22T21:05:33.374Z,21.30
2018-08-22T21:08:01.697Z,21.40
2018-08-22T21:10:30.030Z,21.20
2018-08-22T21:12:58.366Z,20.90
2018-08-22T21:15:26.702Z,20.60
2018-08-22T21:17:55.035Z,20.30
2018-08-22T21:20:26.126Z,20.20
2018-08-22T21:22:55.921Z,20.10
2018-08-22T21:25:25.061Z,20.30
2018-08-22T21:27:53.792Z,20.50
2018-08-22T21:30:22.170Z,20.30
2018-08-22T21:32:50.566Z,20.10
2018-08-22T21:35:25.771Z,19.90
2018-08-22T21:37:57.872Z,19.80
2018-08-22T21:40:26.214Z,19.70
2018-08-22T21:42:54.524Z,19.70
2018-08-22T21:45:22.853Z,20.00
2018-08-22T21:48:03.888Z,20.80
2018-08-22T21:50:32.940Z,20.70
2018-08-22T21:53:02.457Z,20.10
2018-08-22T21:55:40.895Z,20.00
2018-08-22T21:58:09.913Z,20.00
2018-08-22T22:00:38.588Z,19.80
2018-08-22T22:03:07.478Z,19.70
2018-08-22T22:05:42.401Z,19.60
2018-08-22T22:08:10.754Z,19.50
2018-08-22T22:10:39.245Z,19.30
2018-08-22T22:13:08.141Z,19.40
2018-08-22T22:15:43.694Z,19.40
2018-08-22T22:18:13.033Z,19.30
2018-08-22T22:20:42.501Z,19.20
2018-08-22T22:23:11.860Z,19.00
2018-08-22T22:25:41.312Z,18.90
2018-08-22T22:28:10.426Z,18.70
2018-08-22T22:30:39.465Z,18.60
2018-08-22T22:33:08.646Z,18.60
2018-08-22T22:35:38.993Z,18.60
2018-08-22T22:38:12.370Z,18.60
2018-08-22T22:40:41.300Z,18.60
2018-08-22T22:43:12.580Z,18.60
2018-08-22T22:45:40.925Z,18.50
2018-08-22T22:48:09.264Z,18.50
2018-08-22T22:50:37.680Z,18.50
2018-08-22T22:53:06.335Z,18.40
2018-08-22T22:55:34.712Z,18.30
2018-08-22T22:58:03.417Z,18.30
2018-08-22T23:00:31.765Z,18.20
2018-08-22T23:03:05.257Z,18.10
2018-08-22T23:05:33.605Z,18.00
2018-08-22T23:08:02.250Z,18.00
2018-08-22T23:10:30.668Z,18.00
2018-08-22T23:12:58.990Z,18.00
2018-08-22T23:15:29.437Z,17.90
2018-08-22T23:18:01.902Z,18.00
2018-08-22T23:20:36.646Z,18.00
2018-08-22T23:23:38.386Z,18.00
2018-08-22T23:26:13.017Z,18.00
2018-08-22T23:28:42.106Z,17.90
2018-08-22T23:31:10.564Z,17.80
2018-08-22T23:33:38.901Z,17.70
2018-08-22T23:36:07.242Z,17.70
2018-08-22T23:38:37.257Z,17.70
2018-08-22T23:41:05.593Z,17.60
2018-08-22T23:43:39.854Z,17.60
2018-08-22T23:46:09.442Z,17.60
2018-08-22T23:48:38.056Z,17.50
2018-08-22T23:51:08.411Z,17.60
2018-08-22T23:53:41.737Z,17.60
2018-08-22T23:56:26.348Z,17.70
2018-08-22T23:58:55.205Z,17.80
